Logo AVAMET
Benvolgut visitant, si us plau, ingressa Recuperar contrasenya

Benicàssim centre

Dades diàries. Acumulats / Últims 30 dies disponibles

Data Temperatura (°C) Humitat rel. (%) Pressió rel. (hPa) Vent (km/h) Precipitació
Mínima Mitjana Màxima Amplitud
tèrmica
Mínima Mitjana Màxima Mínima Mitjana Màxima Predom. Mitjana Ràfega
màxima
Total
(mm)
Índex-n
Mínima Mitjana Màxima Mínima Mitjana Màxima n
0 a 1
P0 max
mm 5'
Dades mensuals acumulades fins l'últim dia disponible
05/2019 10,2 14,3 17,9 18,1 19,1 22,1 28,8 18,6 25 65 89 999 1.013 1.023   2,1 56,3 4,4
Dades anuals acumulades fins l'últim dia disponible
2019 3,6 10,1 17,9 14,0 11,7 18,4 28,8 25,2 21 63 96 988 1.017 1.035   2,5 96,6 69,2
Últims 30 dies disponibles
21-05-2019 14,8     18,1     22,3 7,5 57 73 88 1.012 1.014 1.016 SE 1,3 12,9 1,4
20-05-2019 15,2     18,6     21,4 6,2 40 54 68 1.010 1.011 1.013 S 1,4 24,1 0,0
19-05-2019 12,2     17,7     22,5 10,3 38 56 70 1.008 1.009 1.011 S 1,4 20,9 0,0
18-05-2019 13,7     16,8     20,7 7,0 44 54 74 1.007 1.008 1.010 SSE 1,1 14,5 0,8 0,20
17-05-2019 16,3     19,4     23,4 7,1 34 53 87 999 1.003 1.008 SSE 4,3 48,3 0,0
16-05-2019 15,9     17,9     21,3 5,4 65 73 79 1.005 1.010 1.014 SE 1,3 14,5 0,0
15-05-2019 14,7     17,5     21,1 6,4 64 74 81 1.010 1.011 1.015 E 6,1 32,2 0,0
14-05-2019 13,2     18,4     21,6 8,4 50 69 86 1.013 1.017 1.021 S 1,4 19,3 0,0
13-05-2019 14,1     19,2     22,6 8,5 47 71 88 1.018 1.019 1.021 ESE 0,8 17,7 0,0
12-05-2019 13,8     18,4     21,7 7,9 35 58 86 1.018 1.021 1.023 S 1,7 16,1 0,0
11-05-2019 17,1     20,2     24,2 7,1 34 71 86 1.013 1.017 1.022 ESE 3,9 30,6 0,0
10-05-2019 16,5     22,5     28,8 12,3 46 63 81 1.009 1.011 1.013 SE 1,1 17,7 0,0
09-05-2019 17,9     21,1     25,8 7,9 37 55 72 1.008 1.010 1.011 SSE 1,9 20,9 0,0
08-05-2019 16,3     20,4     27,4 11,1 39 69 89 1.006 1.009 1.014 SSO 3,5 43,5 0,0
07-05-2019 13,5     17,2     21,2 7,7 67 80 88 1.013 1.016 1.018 SSE 1,0 12,9 0,0
06-05-2019 10,2     15,4     19,1 8,9 43 62 81 1.016 1.017 1.019 S 0,6 11,3 0,0
05-05-2019 13,2     16,6     19,8 6,6 25 48 78 1.011 1.014 1.016 S 4,3 56,3 0,0
04-05-2019 12,0     16,2     19,3 7,3 46 56 74 1.010 1.011 1.012 SSE 3,1 32,2 0,0
03-05-2019 11,3     14,4     19,2 7,9 60 79 87 1.010 1.011 1.014 SE 1,8 25,7 2,2
02-05-2019 14,4     17,1     21,1 6,7 64 76 83 1.013 1.014 1.015 SE 0,8 12,9 0,0
01-05-2019 14,9     16,9     20,4 5,5 67 79 87 1.013 1.014 1.016 SSO 1,1 12,9 0,0
30-04-2019 13,9     16,8     20,6 6,7 67 80 89 1.015 1.016 1.018 SSO 0,9 14,5 0,0
29-04-2019 11,4     15,7     20,6 9,2 58 73 87 1.017 1.018 1.020 SSE 1,1 16,1 0,0
28-04-2019 12,8     16,6     19,8 7,0 56 66 81 1.019 1.021 1.023 SE 0,6 11,3 0,0
27-04-2019 12,4     16,6     20,4 8,0 42 60 79 1.023 1.024 1.025 S 0,9 17,7 0,0
26-04-2019 10,3     16,4     21,2 10,9 36 50 64 1.015 1.020 1.024 S 1,1 16,1 0,0
25-04-2019 14,6     17,9     22,9 8,3 30 59 85 1.006 1.009 1.014 SSO 5,7 46,7 0,0
24-04-2019 9,7     14,3     18,8 9,1 41 65 80 1.000 1.006 1.009 SSO 4,6 41,8 0,0
23-04-2019 11,2     15,1     20,5 9,3 47 77 89 996 997 1.000 SSO 2,0 40,2 0,6
22-04-2019 12,2     15,5     17,6 5,4 57 69 84 998 1.000 1.005 SE 3,6 30,6 2,6 0,30 0,40
Últims 13 mesos disponibles
04/2019 7,0 11,8 14,6 15,4 15,7 19,4 26,4 19,4 45 64 88 997 1.011 1.024 S 4,1 56,3 48,6
03/2019 8,0 10,1 12,4 14,4 13,2 19,0 24,3 16,3 41 60 81 1.008 1.021 1.028 SSE 1,8 49,9 13,2
02/2019 4,4 7,7 11,4 11,7 11,7 16,4 20,7 16,3 30 67 86 991 1.022 1.033 SSO 1,7 96,6 0,2
01/2019 3,6 7,5 10,9 11,5 12,1 16,0 22,3 18,7 35 59 84 998 1.017 1.029 S 2,6 70,8 2,8
12/2018 6,3 9,6 12,2 12,9 14,2 17,6 22,5 16,2 48 75 90 1.006 1.023 1.029 SSO 0,7 59,5 4,8
11/2018 8,0 11,7 16,6 14,7 14,7 18,6 22,2 14,2 54 73 88 1.000 1.013 1.022 SSE 2,1 53,1 105,4
10/2018 7,6 16,4 19,6 19,1 14,6 23,5 28,7 21,1 36 71 90 1.002 1.014 1.024 3,0 67,6 170,6
09/2018 18,1 21,4 24,5 24,7 24,5 28,4 32,1 14,0 54 73 83 1.011 1.017 1.027 2,1 53,1 41,4
08/2018 20,6 23,6 27,0 27,2 27,8 30,8 34,7 14,1 55 68 80 1.011 1.015 1.020 1,6 46,7 37,4
07/2018 18,7 23,2 25,3 26,9 26,4 30,5 34,0 15,3 74 76 78 1.010 1.012 1.014 1,8 38,6 5,6
06/2018 15,7 19,9 22,8 23,6 23,3 27,2 30,4 14,7 1,7 38,6 18,2
05/2018 9,6 15,4 19,1 18,9 18,2 22,8 25,4 15,8 1,9 72,4 8,6
04/2018 7,7 12,4 16,6 16,5 14,8 20,8 25,1 17,4 47 47 47 1.011 1.011 1.011 2,9 49,9 21,2
Tots els anys disponibles
2018 3,4 14,9 27,0 18,5 9,1 22,4 34,7 31,3 36 69 90 998 1.016 1.034 ENE 2,2 77,2 514,8
2017 4,3 9,7 17,9 13,2 9,1 17,2 27,0 22,7 29 58 84 994 1.020 1.034 NW 2,1 82,1 247,0
2016 3,8 15,4 24,9 18,6 11,1 22,2 32,9 29,1 2,3 70,8 409,2
2015 2,6 15,3 22,6 18,7 20,9 22,5 34,8 32,2 2,6 83,7 450,6
Temperatura (°C)
Humitat relativa (%)
Velocitat del vent i ràfega màxima (km/h)
Direcció del vent (°)
Pressió (hPa)
Precipitació (mm)
Nota sobre les dades: s'avisa a l'usuari de la provisionalitat i no oficialitat d'aquestes dades
Logo AVAMET blanc
Web allotjada a Sollutia
Llicència de Creative CommonsLa web d'AVAMET i els seus continguts estan subjectes a una llicència de
Reconeixement - No Comercial - Compartir igual
Properes estacions: Altea - Club Nàutic d'Altea (Soci), Ontinyent - El Pilar (Soci), Ares del Maestrat (Ajuntament Soci), Catadau - L'Altet (Inforatge)     - - - - -      Últimes estacions: Jacarilla - centro (MeteOrihuela), Elx - Maitino/Vallverda/Velarde/Matola/Ferriol (Soci TiempoElche.com), Orihuela - Playa Flamenca (MeteOrihuela), Puçol - Ciutat Jardí (Soci), Alzira - La Casella (Soci) - - -